createdAt,value
2018-04-24T00:01:13.876Z,8.97
2018-04-24T00:03:41.236Z,8.43
2018-04-24T00:06:08.632Z,8.50
2018-04-24T00:08:35.999Z,8.20
2018-04-24T00:11:03.399Z,8.50
2018-04-24T00:13:30.744Z,8.13
2018-04-24T00:15:58.125Z,8.43
2018-04-24T00:18:25.562Z,8.20
2018-04-24T00:20:52.940Z,8.67
2018-04-24T00:23:20.291Z,9.07
2018-04-24T00:25:47.679Z,8.40
2018-04-24T00:28:15.075Z,9.07
2018-04-24T00:30:42.457Z,9.83
2018-04-24T00:33:09.807Z,9.03
2018-04-24T00:35:37.253Z,9.07
2018-04-24T00:38:04.604Z,9.23
2018-04-24T00:40:31.980Z,9.43
2018-04-24T00:42:59.400Z,10.03
2018-04-24T00:45:26.792Z,10.20
2018-04-24T00:47:54.204Z,10.00
2018-04-24T00:50:21.563Z,10.07
2018-04-24T00:52:48.975Z,9.50
2018-04-24T00:55:16.367Z,9.30
2018-04-24T00:57:43.779Z,9.07
2018-04-24T01:00:11.122Z,9.87
2018-04-24T01:02:38.498Z,9.40
2018-04-24T01:05:05.883Z,8.80
2018-04-24T01:07:33.337Z,8.00
2018-04-24T01:10:00.642Z,10.00
2018-04-24T01:12:28.017Z,9.43
2018-04-24T01:14:55.415Z,8.43
2018-04-24T01:17:22.796Z,9.43
2018-04-24T01:19:50.216Z,9.23
2018-04-24T01:22:17.597Z,9.90
2018-04-24T01:24:44.938Z,10.23
2018-04-24T01:27:12.327Z,9.73
2018-04-24T01:29:39.687Z,10.20
2018-04-24T01:32:07.066Z,9.37
2018-04-24T01:34:34.489Z,10.77
2018-04-24T01:37:01.839Z,10.37
2018-04-24T01:39:29.234Z,10.27
2018-04-24T01:41:56.684Z,10.33
2018-04-24T01:44:23.990Z,10.20
2018-04-24T01:46:51.380Z,10.57
2018-04-24T01:49:18.736Z,11.30
2018-04-24T01:51:46.106Z,9.90
2018-04-24T01:54:13.460Z,9.73
2018-04-24T01:56:40.853Z,10.30
2018-04-24T01:59:08.208Z,10.70
2018-04-24T02:01:35.586Z,10.47
2018-04-24T02:04:02.972Z,10.50
2018-04-24T02:06:30.439Z,9.90
2018-04-24T02:08:57.847Z,10.40
2018-04-24T02:11:25.231Z,10.43
2018-04-24T02:13:52.611Z,9.67
2018-04-24T02:16:20.015Z,10.00
2018-04-24T02:18:47.394Z,9.87
2018-04-24T02:21:14.738Z,9.40
2018-04-24T02:23:42.159Z,10.00
2018-04-24T02:26:09.541Z,9.40
2018-04-24T02:28:37.052Z,9.20
2018-04-24T02:31:04.443Z,9.60
2018-04-24T02:33:31.820Z,9.70
2018-04-24T02:35:59.188Z,10.40
2018-04-24T02:38:26.560Z,9.93
2018-04-24T02:40:53.953Z,10.03
2018-04-24T02:43:21.309Z,10.20
2018-04-24T02:45:48.738Z,10.03
2018-04-24T02:48:16.211Z,9.50
2018-04-24T02:50:43.629Z,10.20
2018-04-24T02:53:11.032Z,9.60
2018-04-24T02:55:38.460Z,10.30
2018-04-24T02:58:05.825Z,10.63
2018-04-24T03:00:33.202Z,10.70
2018-04-24T03:03:00.623Z,9.70
2018-04-24T03:05:28.527Z,9.30
2018-04-24T03:07:55.912Z,10.13
2018-04-24T03:10:23.302Z,10.20
2018-04-24T03:12:50.683Z,9.73
2018-04-24T03:15:18.035Z,9.90
2018-04-24T03:17:45.402Z,9.30
2018-04-24T03:20:12.815Z,10.53
2018-04-24T03:22:40.167Z,10.30
2018-04-24T03:25:07.520Z,9.50
2018-04-24T03:27:34.909Z,10.33
2018-04-24T03:30:02.296Z,10.30
2018-04-24T03:32:29.666Z,9.67
2018-04-24T03:34:57.077Z,10.70
2018-04-24T03:37:24.446Z,10.23
2018-04-24T03:39:51.826Z,11.50
2018-04-24T03:42:19.207Z,10.77
2018-04-24T03:44:46.583Z,11.20
2018-04-24T03:47:13.974Z,10.60
2018-04-24T03:49:41.354Z,11.20
2018-04-24T03:52:08.780Z,11.10
2018-04-24T03:54:36.147Z,11.07
2018-04-24T03:57:03.504Z,10.53
2018-04-24T03:59:30.928Z,11.33
2018-04-24T04:01:58.295Z,10.80
2018-04-24T04:04:25.647Z,10.83
2018-04-24T04:06:53.174Z,11.50
2018-04-24T04:09:20.608Z,11.50
2018-04-24T04:11:47.991Z,11.53
2018-04-24T04:14:15.386Z,11.90
2018-04-24T04:16:42.783Z,11.30
2018-04-24T04:19:16.193Z,12.07
2018-04-24T04:21:49.522Z,10.73
2018-04-24T04:24:22.667Z,10.93
2018-04-24T04:26:50.029Z,10.80
2018-04-24T04:29:17.416Z,12.80
2018-04-24T04:31:44.767Z,11.47
2018-04-24T04:34:12.126Z,11.60
2018-04-24T04:36:39.608Z,10.60
2018-04-24T04:39:06.988Z,11.07
2018-04-24T04:41:34.434Z,10.23
2018-04-24T04:44:01.748Z,9.97
2018-04-24T04:46:29.180Z,11.00
2018-04-24T04:48:56.560Z,9.90
2018-04-24T04:51:23.984Z,10.60
2018-04-24T04:53:51.338Z,11.90
2018-04-24T04:56:18.735Z,11.20
2018-04-24T04:58:46.111Z,10.90
2018-04-24T05:01:13.504Z,11.57
2018-04-24T05:03:40.895Z,11.73
2018-04-24T05:06:08.460Z,11.33
2018-04-24T05:08:35.840Z,11.13
2018-04-24T05:11:03.268Z,11.07
2018-04-24T05:13:30.723Z,11.80
2018-04-24T05:15:58.136Z,10.90
2018-04-24T05:18:25.564Z,12.03
2018-04-24T05:20:52.944Z,11.40
2018-04-24T05:23:20.311Z,11.60
2018-04-24T05:25:47.802Z,12.10
2018-04-24T05:28:15.236Z,11.10
2018-04-24T05:30:42.647Z,12.23
2018-04-24T05:33:10.034Z,11.40
2018-04-24T05:35:37.383Z,12.33
2018-04-24T05:38:04.767Z,11.43
2018-04-24T05:40:32.174Z,12.30
2018-04-24T05:42:59.552Z,10.87
2018-04-24T05:45:27.029Z,12.13
2018-04-24T05:47:54.383Z,12.00
2018-04-24T05:50:21.738Z,12.43
2018-04-24T05:52:49.138Z,11.57
2018-04-24T05:55:16.516Z,10.87
2018-04-24T05:57:43.990Z,11.50
2018-04-24T06:00:11.320Z,11.97
2018-04-24T06:02:38.745Z,11.37
2018-04-24T06:05:06.133Z,11.80
2018-04-24T06:07:33.592Z,11.77
2018-04-24T06:10:01.001Z,12.23
2018-04-24T06:12:28.379Z,11.50
2018-04-24T06:14:55.748Z,11.70
2018-04-24T06:17:23.168Z,12.40
2018-04-24T06:19:50.539Z,10.67
2018-04-24T06:22:17.882Z,12.23
2018-04-24T06:24:45.311Z,11.80
2018-04-24T06:27:12.744Z,12.73
2018-04-24T06:29:40.778Z,12.37
2018-04-24T06:32:08.299Z,12.20
2018-04-24T06:34:35.724Z,12.23
2018-04-24T06:37:03.112Z,12.80
2018-04-24T06:39:30.544Z,12.70
2018-04-24T06:41:57.981Z,12.37
2018-04-24T06:44:25.368Z,12.33
2018-04-24T06:46:52.835Z,12.00
2018-04-24T06:49:20.383Z,12.93
2018-04-24T06:51:47.731Z,11.90
2018-04-24T06:54:15.087Z,12.93
2018-04-24T06:56:42.471Z,12.70
2018-04-24T06:59:09.827Z,12.83
2018-04-24T07:01:37.253Z,12.37
2018-04-24T07:04:04.651Z,13.03
2018-04-24T07:06:32.075Z,13.17
2018-04-24T07:08:59.464Z,12.00
2018-04-24T07:11:26.828Z,12.13
2018-04-24T07:13:54.240Z,12.20
2018-04-24T07:16:21.657Z,11.53
2018-04-24T07:18:49.075Z,12.87
2018-04-24T07:21:16.434Z,12.70
2018-04-24T07:23:43.823Z,14.03
2018-04-24T07:26:11.205Z,12.97
2018-04-24T07:28:38.594Z,14.30
2018-04-24T07:31:05.978Z,13.50
2018-04-24T07:33:33.368Z,14.80
2018-04-24T07:36:00.796Z,14.90
2018-04-24T07:38:28.155Z,14.90
2018-04-24T07:40:55.544Z,15.70
2018-04-24T07:43:22.895Z,15.90
2018-04-24T07:45:50.318Z,16.13
2018-04-24T07:48:17.666Z,16.50
2018-04-24T07:50:45.067Z,16.50
2018-04-24T07:53:12.492Z,16.80
2018-04-24T07:55:39.863Z,17.23
2018-04-24T07:58:07.246Z,17.47
2018-04-24T08:00:34.627Z,18.27
2018-04-24T08:03:02.039Z,18.63
2018-04-24T08:05:29.395Z,18.87
2018-04-24T08:07:56.999Z,18.00
2018-04-24T08:10:24.363Z,18.40
2018-04-24T08:12:51.781Z,18.73
2018-04-24T08:15:19.136Z,19.73
2018-04-24T08:17:46.488Z,19.37
2018-04-24T08:20:13.918Z,19.50
2018-04-24T08:22:41.295Z,19.33
2018-04-24T08:25:08.683Z,19.90
2018-04-24T08:27:36.085Z,20.17
2018-04-24T08:30:03.516Z,20.13
2018-04-24T08:32:30.937Z,19.67
2018-04-24T08:34:58.295Z,20.13
2018-04-24T08:37:25.708Z,20.97
2018-04-24T08:39:53.061Z,20.03
2018-04-24T08:42:20.447Z,20.83
2018-04-24T08:44:47.824Z,20.00
2018-04-24T08:47:15.228Z,21.97
2018-04-24T08:49:42.748Z,21.30
2018-04-24T08:52:10.173Z,20.03
2018-04-24T08:54:37.564Z,21.97
2018-04-24T08:57:04.974Z,21.70
2018-04-24T08:59:32.359Z,18.60
2018-04-24T09:02:00.475Z,18.23
2018-04-24T09:04:27.872Z,19.20
2018-04-24T09:06:55.282Z,17.47
2018-04-24T09:09:22.662Z,19.23
2018-04-24T09:11:50.048Z,18.60
2018-04-24T09:14:17.476Z,18.80
2018-04-24T09:16:44.867Z,19.33
2018-04-24T09:19:12.267Z,18.17
2018-04-24T09:21:39.639Z,18.10
2018-04-24T09:24:07.042Z,17.13
2018-04-24T09:26:34.399Z,13.77
2018-04-24T09:29:01.815Z,14.47
2018-04-24T09:31:34.940Z,12.10
2018-04-24T09:34:02.326Z,12.00
2018-04-24T09:36:29.680Z,11.20
2018-04-24T09:38:57.161Z,10.53
2018-04-24T09:41:24.494Z,10.47
2018-04-24T09:43:51.969Z,10.70
2018-04-24T09:46:19.346Z,10.90
2018-04-24T09:48:46.712Z,10.43
2018-04-24T09:51:14.154Z,9.90
2018-04-24T09:53:41.526Z,10.17
2018-04-24T09:56:08.932Z,9.67
2018-04-24T09:58:36.345Z,9.77
2018-04-24T10:01:03.695Z,10.60
2018-04-24T10:03:31.086Z,9.73
2018-04-24T10:05:58.468Z,8.80
2018-04-24T10:08:25.976Z,9.00
2018-04-24T10:10:53.336Z,8.00
2018-04-24T10:13:20.719Z,7.63
2018-04-24T10:15:48.091Z,7.10
2018-04-24T10:18:15.427Z,6.70
2018-04-24T10:20:42.828Z,6.47
2018-04-24T10:23:10.183Z,7.90
2018-04-24T10:25:37.607Z,7.80
2018-04-24T10:28:04.959Z,7.60
2018-04-24T10:30:32.343Z,8.13
2018-04-24T10:32:59.719Z,7.30
2018-04-24T10:35:27.124Z,7.47
2018-04-24T10:37:54.528Z,9.00
2018-04-24T10:40:21.887Z,9.40
2018-04-24T10:42:49.305Z,9.50
2018-04-24T10:45:16.658Z,10.00
2018-04-24T10:47:44.056Z,9.27
2018-04-24T10:50:11.399Z,10.07
2018-04-24T10:52:38.787Z,9.47
2018-04-24T10:55:06.198Z,9.63
2018-04-24T10:57:33.540Z,9.00
2018-04-24T11:00:00.919Z,8.80
2018-04-24T11:02:28.343Z,10.00
2018-04-24T11:04:55.730Z,10.20
2018-04-24T11:07:23.119Z,10.60
2018-04-24T11:09:50.494Z,9.50
2018-04-24T11:12:17.903Z,10.70
2018-04-24T11:14:45.259Z,10.00
2018-04-24T11:17:12.636Z,9.43
2018-04-24T11:19:40.030Z,10.00
2018-04-24T11:22:07.412Z,10.10
2018-04-24T11:24:34.771Z,9.73
2018-04-24T11:27:02.158Z,12.00
2018-04-24T11:29:29.531Z,11.20
2018-04-24T11:31:56.905Z,11.60
2018-04-24T11:34:24.354Z,11.40
2018-04-24T11:36:51.746Z,11.67
2018-04-24T11:39:19.184Z,11.57
2018-04-24T11:41:46.613Z,12.03
2018-04-24T11:44:14.014Z,11.50
2018-04-24T11:46:41.434Z,11.67
2018-04-24T11:49:08.807Z,11.90
2018-04-24T11:51:36.189Z,11.70
2018-04-24T11:54:03.586Z,11.93
2018-04-24T11:56:31.021Z,12.30
2018-04-24T11:58:58.384Z,11.80
2018-04-24T12:01:25.768Z,12.30
2018-04-24T12:03:53.180Z,13.23
2018-04-24T12:06:20.560Z,13.00
2018-04-24T12:08:47.922Z,14.63
2018-04-24T12:11:15.467Z,13.97
2018-04-24T12:13:42.888Z,15.53
2018-04-24T12:16:10.509Z,15.97
2018-04-24T12:18:37.903Z,14.57
2018-04-24T12:21:05.297Z,14.50
2018-04-24T12:23:32.687Z,12.90
2018-04-24T12:26:00.072Z,11.53
2018-04-24T12:28:27.486Z,10.43
2018-04-24T12:30:54.841Z,8.27
2018-04-24T12:33:22.211Z,5.20
2018-04-24T12:35:49.587Z,4.63
2018-04-24T12:38:17.021Z,4.17
2018-04-24T12:40:44.417Z,4.60
2018-04-24T12:43:11.757Z,4.47
2018-04-24T12:45:39.127Z,3.90
2018-04-24T12:48:06.551Z,3.90
2018-04-24T12:50:34.019Z,4.03
2018-04-24T12:53:01.474Z,3.80
2018-04-24T12:55:28.812Z,3.50
2018-04-24T12:57:56.251Z,3.63
2018-04-24T13:00:23.753Z,4.20
2018-04-24T13:02:51.160Z,3.60
2018-04-24T13:05:18.544Z,3.70
2018-04-24T13:07:45.942Z,4.33
2018-04-24T13:10:13.337Z,4.03
2018-04-24T13:12:40.706Z,4.00
2018-04-24T13:15:08.106Z,4.03
2018-04-24T13:17:35.481Z,4.43
2018-04-24T13:20:02.867Z,4.10
2018-04-24T13:22:30.245Z,4.50
2018-04-24T13:24:57.633Z,4.13
2018-04-24T13:27:25.004Z,4.40
2018-04-24T13:29:52.347Z,4.70
2018-04-24T13:32:19.719Z,5.40
2018-04-24T13:34:47.107Z,4.80
2018-04-24T13:37:14.621Z,5.27
2018-04-24T13:39:41.939Z,4.27
2018-04-24T13:42:09.408Z,5.40
2018-04-24T13:44:36.882Z,4.70
2018-04-24T13:47:05.139Z,5.33
2018-04-24T13:49:32.539Z,5.40
2018-04-24T13:51:59.891Z,5.43
2018-04-24T13:54:27.316Z,4.90
2018-04-24T13:56:54.670Z,5.00
2018-04-24T13:59:22.049Z,6.40
2018-04-24T14:01:49.439Z,5.90
2018-04-24T14:04:16.856Z,6.00
2018-04-24T14:06:44.190Z,5.93
2018-04-24T14:09:11.529Z,6.03
2018-04-24T14:11:38.935Z,6.00
2018-04-24T14:14:06.286Z,6.33
2018-04-24T14:16:33.674Z,6.33
2018-04-24T14:19:03.015Z,7.00
2018-04-24T14:21:30.419Z,6.90
2018-04-24T14:23:57.770Z,6.20
2018-04-24T14:26:25.192Z,7.07
2018-04-24T14:28:52.580Z,7.27
2018-04-24T14:31:19.945Z,6.20
2018-04-24T14:33:47.335Z,6.33
2018-04-24T14:36:14.748Z,6.93
2018-04-24T14:38:42.141Z,6.60
2018-04-24T14:41:09.526Z,7.23
2018-04-24T14:43:36.894Z,6.73
2018-04-24T14:46:04.269Z,7.10
2018-04-24T14:48:31.662Z,7.70
2018-04-24T14:50:59.008Z,7.37
2018-04-24T14:53:26.416Z,7.77
2018-04-24T14:55:53.788Z,6.67
2018-04-24T14:58:21.327Z,7.27
2018-04-24T15:00:48.687Z,7.50
2018-04-24T15:03:16.096Z,8.03
2018-04-24T15:05:43.442Z,7.40
2018-04-24T15:08:10.878Z,8.10
2018-04-24T15:10:38.304Z,7.80
2018-04-24T15:13:05.695Z,7.87
2018-04-24T15:15:33.131Z,7.33
2018-04-24T15:18:00.581Z,8.20
2018-04-24T15:20:28.021Z,7.90
2018-04-24T15:22:55.403Z,7.83
2018-04-24T15:25:22.790Z,8.47
2018-04-24T15:27:50.462Z,8.70
2018-04-24T15:30:17.868Z,8.17
2018-04-24T15:32:45.299Z,7.93
2018-04-24T15:35:12.730Z,8.80
2018-04-24T15:37:40.110Z,8.73
2018-04-24T15:40:07.508Z,9.07
2018-04-24T15:42:34.862Z,9.20
2018-04-24T15:45:02.559Z,10.00
2018-04-24T15:47:29.999Z,9.67
2018-04-24T15:49:57.400Z,10.83
2018-04-24T15:52:24.856Z,10.63
2018-04-24T15:54:52.396Z,10.60
2018-04-24T15:57:19.761Z,10.50
2018-04-24T15:59:47.152Z,10.77
2018-04-24T16:02:14.545Z,10.20
2018-04-24T16:04:42.317Z,10.80
2018-04-24T16:07:09.777Z,11.03
2018-04-24T16:09:37.231Z,9.90
2018-04-24T16:12:04.612Z,11.10
2018-04-24T16:14:32.349Z,10.97
2018-04-24T16:16:59.799Z,10.70
2018-04-24T16:19:27.164Z,10.90
2018-04-24T16:21:54.580Z,10.47
2018-04-24T16:24:22.014Z,10.73
2018-04-24T16:26:49.440Z,10.23
2018-04-24T16:29:16.847Z,10.80
2018-04-24T16:31:44.248Z,10.67
2018-04-24T16:34:11.629Z,10.73
2018-04-24T16:36:38.979Z,10.30
2018-04-24T16:39:06.383Z,9.50
2018-04-24T16:41:33.765Z,9.97
2018-04-24T16:44:01.144Z,10.83
2018-04-24T16:46:28.538Z,9.37
2018-04-24T16:48:55.947Z,9.93
2018-04-24T16:51:23.299Z,10.07
2018-04-24T16:53:50.714Z,10.17
2018-04-24T16:56:18.143Z,10.90
2018-04-24T16:58:45.543Z,10.47
2018-04-24T17:01:13.003Z,12.13
2018-04-24T17:03:40.359Z,11.90
2018-04-24T17:06:07.825Z,11.97
2018-04-24T17:08:35.158Z,11.17
2018-04-24T17:11:02.564Z,10.80
2018-04-24T17:13:29.992Z,11.50
2018-04-24T17:15:57.363Z,11.20
2018-04-24T17:18:24.760Z,10.40
2018-04-24T17:20:52.148Z,11.27
2018-04-24T17:23:19.539Z,10.10
2018-04-24T17:25:46.918Z,11.00
2018-04-24T17:28:14.364Z,11.23
2018-04-24T17:30:41.736Z,11.30
2018-04-24T17:33:09.116Z,10.30
2018-04-24T17:35:36.558Z,10.80
2018-04-24T17:38:03.943Z,9.67
2018-04-24T17:40:31.373Z,10.47
2018-04-24T17:42:59.723Z,10.70
2018-04-24T17:45:27.145Z,9.67
2018-04-24T17:47:54.524Z,9.13
2018-04-24T17:50:21.929Z,9.87
2018-04-24T17:52:49.348Z,9.23
2018-04-24T17:55:16.709Z,9.30
2018-04-24T17:57:44.106Z,9.70
2018-04-24T18:00:11.482Z,9.40
2018-04-24T18:02:38.870Z,9.40
2018-04-24T18:05:06.249Z,9.23
2018-04-24T18:07:33.686Z,10.10
2018-04-24T18:10:01.410Z,10.27
2018-04-24T18:12:28.991Z,9.90
2018-04-24T18:14:57.063Z,9.63
2018-04-24T18:17:24.412Z,9.83
2018-04-24T18:19:51.799Z,9.73
2018-04-24T18:22:19.175Z,10.10
2018-04-24T18:24:47.498Z,10.40
2018-04-24T18:27:14.859Z,10.53
2018-04-24T18:29:42.254Z,11.40
2018-04-24T18:32:09.636Z,10.00
2018-04-24T18:34:37.743Z,10.93
2018-04-24T18:37:05.165Z,10.90
2018-04-24T18:39:32.584Z,10.70
2018-04-24T18:41:59.980Z,11.20
2018-04-24T18:44:27.369Z,11.37
2018-04-24T18:46:54.756Z,10.70
2018-04-24T18:49:22.271Z,11.10
2018-04-24T18:51:49.931Z,11.77
2018-04-24T18:54:17.449Z,11.70
2018-04-24T18:56:45.027Z,12.17
2018-04-24T18:59:12.492Z,11.37
2018-04-24T19:01:39.845Z,12.00
2018-04-24T19:04:07.666Z,10.87
2018-04-24T19:06:35.095Z,11.97
2018-04-24T19:09:02.826Z,11.30
2018-04-24T19:11:30.503Z,12.53
2018-04-24T19:13:57.911Z,11.27
2018-04-24T19:16:25.343Z,12.60
2018-04-24T19:18:59.105Z,10.73
2018-04-24T19:21:26.548Z,11.50
2018-04-24T19:23:54.048Z,11.93
2018-04-24T19:26:21.457Z,12.43
2018-04-24T19:28:49.752Z,11.87
2018-04-24T19:31:22.905Z,12.10
2018-04-24T19:33:50.605Z,11.60
2018-04-24T19:36:18.031Z,12.37
2018-04-24T19:38:51.136Z,12.10
2018-04-24T19:41:25.164Z,11.50
2018-04-24T19:43:52.653Z,12.00
2018-04-24T19:46:20.050Z,11.70
2018-04-24T19:48:53.175Z,11.73
2018-04-24T19:51:20.563Z,12.67
2018-04-24T19:53:47.920Z,11.27
2018-04-24T19:56:15.315Z,11.40
2018-04-24T19:58:42.794Z,11.10
2018-04-24T20:01:11.102Z,11.70
2018-04-24T20:03:38.626Z,11.37
2018-04-24T20:06:06.060Z,11.43
2018-04-24T20:08:34.351Z,10.73
2018-04-24T20:11:01.776Z,11.87
2018-04-24T20:13:29.175Z,10.93
2018-04-24T20:15:56.560Z,11.47
2018-04-24T20:18:23.980Z,10.97
2018-04-24T20:20:51.333Z,11.70
2018-04-24T20:23:18.712Z,11.37
2018-04-24T20:25:46.060Z,11.83
2018-04-24T20:28:13.487Z,11.80
2018-04-24T20:30:40.924Z,12.90
2018-04-24T20:33:08.315Z,11.90
2018-04-24T20:35:35.775Z,11.40
2018-04-24T20:38:03.192Z,12.67
2018-04-24T20:40:30.891Z,12.40
2018-04-24T20:42:58.328Z,12.30
2018-04-24T20:45:26.672Z,12.67
2018-04-24T20:47:54.389Z,13.07
2018-04-24T20:50:22.003Z,12.27
2018-04-24T20:52:49.603Z,13.03
2018-04-24T20:55:17.000Z,12.13
2018-04-24T20:57:44.454Z,12.40
2018-04-24T21:00:11.845Z,13.30
2018-04-24T21:02:39.239Z,13.07
2018-04-24T21:05:06.635Z,12.70
2018-04-24T21:07:34.056Z,12.33
2018-04-24T21:10:01.438Z,12.93
2018-04-24T21:12:28.806Z,13.80
2018-04-24T21:14:56.324Z,13.90
2018-04-24T21:17:23.784Z,14.13
2018-04-24T21:19:51.434Z,14.80
2018-04-24T21:22:18.811Z,14.00
2018-04-24T21:24:46.245Z,14.00
2018-04-24T21:27:13.599Z,14.57
2018-04-24T21:29:40.995Z,14.00
2018-04-24T21:32:08.408Z,13.53
2018-04-24T21:34:35.791Z,12.83
2018-04-24T21:37:03.207Z,12.80
2018-04-24T21:39:31.506Z,13.90
2018-04-24T21:41:58.892Z,13.17
2018-04-24T21:44:26.421Z,12.27
2018-04-24T21:46:53.841Z,13.20
2018-04-24T21:49:21.239Z,13.23
2018-04-24T21:51:48.600Z,13.30
2018-04-24T21:54:15.971Z,13.97
2018-04-24T21:56:43.362Z,13.53
2018-04-24T21:59:10.745Z,14.53
2018-04-24T22:01:38.163Z,14.87
2018-04-24T22:04:05.608Z,13.73
2018-04-24T22:06:32.998Z,14.77
2018-04-24T22:09:01.288Z,13.93
2018-04-24T22:11:28.687Z,14.30
2018-04-24T22:13:56.131Z,14.60
2018-04-24T22:16:24.585Z,14.50
2018-04-24T22:18:51.966Z,14.73
2018-04-24T22:21:19.408Z,14.10
2018-04-24T22:23:46.835Z,14.00
2018-04-24T22:26:14.210Z,16.20
2018-04-24T22:28:41.666Z,14.50
2018-04-24T22:31:09.058Z,15.37
2018-04-24T22:33:36.473Z,14.53
2018-04-24T22:36:03.907Z,15.37
2018-04-24T22:38:31.293Z,15.20
2018-04-24T22:40:58.747Z,14.43
2018-04-24T22:43:26.512Z,15.97
2018-04-24T22:45:54.037Z,15.60
2018-04-24T22:48:21.427Z,15.00
2018-04-24T22:50:48.800Z,15.70
2018-04-24T22:53:16.223Z,16.00
2018-04-24T22:55:43.629Z,15.80
2018-04-24T22:58:11.043Z,15.33
2018-04-24T23:00:38.392Z,16.87
2018-04-24T23:03:06.812Z,16.40
2018-04-24T23:05:34.223Z,15.83
2018-04-24T23:08:01.755Z,16.13
2018-04-24T23:10:35.106Z,16.33
2018-04-24T23:13:08.470Z,16.30
2018-04-24T23:15:41.812Z,16.40
2018-04-24T23:18:14.988Z,16.30
2018-04-24T23:20:42.233Z,17.20
2018-04-24T23:23:09.672Z,16.30
2018-04-24T23:25:37.060Z,16.53
2018-04-24T23:28:04.444Z,16.50
2018-04-24T23:30:31.833Z,16.70
2018-04-24T23:32:59.309Z,17.40
2018-04-24T23:35:26.661Z,16.73
2018-04-24T23:37:54.044Z,16.50
2018-04-24T23:40:21.439Z,17.00
2018-04-24T23:42:48.936Z,17.10
2018-04-24T23:45:16.391Z,17.07
2018-04-24T23:47:43.822Z,17.80
2018-04-24T23:50:11.264Z,16.93
2018-04-24T23:52:38.643Z,15.67
2018-04-24T23:55:05.998Z,17.30
2018-04-24T23:57:33.378Z,16.93
